sensor_id;sensor_type;location;lat;lon;timestamp;temperature;humidity
28837;DHT22;50669;50.982;11.022;2023-12-20T00:01:03;19.80;75.10
28837;DHT22;50669;50.982;11.022;2023-12-20T00:03:33;19.80;75.10
28837;DHT22;50669;50.982;11.022;2023-12-20T00:05:59;19.90;75.30
28837;DHT22;50669;50.982;11.022;2023-12-20T00:08:25;19.80;75.20
28837;DHT22;50669;50.982;11.022;2023-12-20T00:10:50;19.80;75.20
28837;DHT22;50669;50.982;11.022;2023-12-20T00:13:18;19.80;75.30
28837;DHT22;50669;50.982;11.022;2023-12-20T00:15:44;19.90;75.30
28837;DHT22;50669;50.982;11.022;2023-12-20T00:18:10;19.80;75.30
28837;DHT22;50669;50.982;11.022;2023-12-20T00:20:38;19.90;75.40
28837;DHT22;50669;50.982;11.022;2023-12-20T00:23:03;19.80;75.40
28837;DHT22;50669;50.982;11.022;2023-12-20T00:25:34;19.90;75.50
28837;DHT22;50669;50.982;11.022;2023-12-20T00:28:00;19.80;75.50
28837;DHT22;50669;50.982;11.022;2023-12-20T00:30:30;19.80;75.50
28837;DHT22;50669;50.982;11.022;2023-12-20T00:33:00;19.80;75.60
28837;DHT22;50669;50.982;11.022;2023-12-20T00:35:26;19.80;75.60
28837;DHT22;50669;50.982;11.022;2023-12-20T00:37:57;19.80;75.70
28837;DHT22;50669;50.982;11.022;2023-12-20T00:40:23;19.80;75.80
28837;DHT22;50669;50.982;11.022;2023-12-20T00:42:49;19.80;75.80
28837;DHT22;50669;50.982;11.022;2023-12-20T00:45:17;19.80;75.80
28837;DHT22;50669;50.982;11.022;2023-12-20T00:47:45;19.80;75.90
28837;DHT22;50669;50.982;11.022;2023-12-20T00:50:11;19.90;76.00
28837;DHT22;50669;50.982;11.022;2023-12-20T00:52:39;19.80;75.90
28837;DHT22;50669;50.982;11.022;2023-12-20T00:55:05;19.80;76.00
28837;DHT22;50669;50.982;11.022;2023-12-20T00:57:31;19.90;76.00
28837;DHT22;50669;50.982;11.022;2023-12-20T00:59:56;19.90;76.10
28837;DHT22;50669;50.982;11.022;2023-12-20T01:02:25;19.90;76.20
28837;DHT22;50669;50.982;11.022;2023-12-20T01:04:55;19.90;76.20
28837;DHT22;50669;50.982;11.022;2023-12-20T01:07:20;19.80;77.00
28837;DHT22;50669;50.982;11.022;2023-12-20T01:09:48;19.80;76.30
28837;DHT22;50669;50.982;11.022;2023-12-20T01:12:19;19.80;76.20
28837;DHT22;50669;50.982;11.022;2023-12-20T01:14:45;19.90;76.40
28837;DHT22;50669;50.982;11.022;2023-12-20T01:17:11;19.80;76.50
28837;DHT22;50669;50.982;11.022;2023-12-20T01:19:37;19.80;76.60
28837;DHT22;50669;50.982;11.022;2023-12-20T01:22:05;19.90;76.70
28837;DHT22;50669;50.982;11.022;2023-12-20T01:24:33;19.90;76.70
28837;DHT22;50669;50.982;11.022;2023-12-20T01:26:59;19.90;76.80
28837;DHT22;50669;50.982;11.022;2023-12-20T01:29:24;19.90;76.70
28837;DHT22;50669;50.982;11.022;2023-12-20T01:31:53;19.80;76.80
28837;DHT22;50669;50.982;11.022;2023-12-20T01:34:18;19.80;76.80
28837;DHT22;50669;50.982;11.022;2023-12-20T01:36:46;19.90;76.90
28837;DHT22;50669;50.982;11.022;2023-12-20T01:39:12;19.80;77.00
28837;DHT22;50669;50.982;11.022;2023-12-20T01:41:40;19.80;77.00
28837;DHT22;50669;50.982;11.022;2023-12-20T01:44:07;19.80;77.00
28837;DHT22;50669;50.982;11.022;2023-12-20T01:46:33;19.80;77.00
28837;DHT22;50669;50.982;11.022;2023-12-20T01:49:01;19.80;77.10
28837;DHT22;50669;50.982;11.022;2023-12-20T01:51:30;19.80;77.10
28837;DHT22;50669;50.982;11.022;2023-12-20T01:53:57;19.80;77.20
28837;DHT22;50669;50.982;11.022;2023-12-20T01:56:26;19.80;77.30
28837;DHT22;50669;50.982;11.022;2023-12-20T01:58:52;19.80;77.30
28837;DHT22;50669;50.982;11.022;2023-12-20T02:01:20;19.90;77.40
28837;DHT22;50669;50.982;11.022;2023-12-20T02:03:48;19.80;77.40
28837;DHT22;50669;50.982;11.022;2023-12-20T02:06:14;19.80;77.50
28837;DHT22;50669;50.982;11.022;2023-12-20T02:08:40;19.80;77.60
28837;DHT22;50669;50.982;11.022;2023-12-20T02:11:06;19.80;77.60
28837;DHT22;50669;50.982;11.022;2023-12-20T02:13:31;19.80;77.70
28837;DHT22;50669;50.982;11.022;2023-12-20T02:16:00;19.80;77.80
28837;DHT22;50669;50.982;11.022;2023-12-20T02:18:26;19.80;77.80
28837;DHT22;50669;50.982;11.022;2023-12-20T02:20:51;19.80;77.80
28837;DHT22;50669;50.982;11.022;2023-12-20T02:23:17;19.80;78.00
28837;DHT22;50669;50.982;11.022;2023-12-20T02:25:43;19.80;78.00
28837;DHT22;50669;50.982;11.022;2023-12-20T02:28:09;19.80;78.10
28837;DHT22;50669;50.982;11.022;2023-12-20T02:30:34;19.80;78.20
28837;DHT22;50669;50.982;11.022;2023-12-20T02:33:01;19.80;78.30
28837;DHT22;50669;50.982;11.022;2023-12-20T02:35:29;19.80;78.40
28837;DHT22;50669;50.982;11.022;2023-12-20T02:37:54;19.80;78.50
28837;DHT22;50669;50.982;11.022;2023-12-20T02:40:20;19.80;78.60
28837;DHT22;50669;50.982;11.022;2023-12-20T02:42:48;19.80;78.60
28837;DHT22;50669;50.982;11.022;2023-12-20T02:45:13;19.90;78.70
28837;DHT22;50669;50.982;11.022;2023-12-20T02:47:39;19.80;78.60
28837;DHT22;50669;50.982;11.022;2023-12-20T02:50:07;19.80;78.70
28837;DHT22;50669;50.982;11.022;2023-12-20T02:52:33;19.80;78.50
28837;DHT22;50669;50.982;11.022;2023-12-20T02:54:59;19.80;78.60
28837;DHT22;50669;50.982;11.022;2023-12-20T02:57:27;19.80;78.50
28837;DHT22;50669;50.982;11.022;2023-12-20T02:59:52;19.80;78.60
28837;DHT22;50669;50.982;11.022;2023-12-20T03:02:18;19.80;78.60
28837;DHT22;50669;50.982;11.022;2023-12-20T03:04:46;19.80;78.60
28837;DHT22;50669;50.982;11.022;2023-12-20T03:07:16;19.80;78.50
28837;DHT22;50669;50.982;11.022;2023-12-20T03:09:42;19.80;78.50
28837;DHT22;50669;50.982;11.022;2023-12-20T03:12:07;19.80;78.60
28837;DHT22;50669;50.982;11.022;2023-12-20T03:14:35;19.80;78.50
28837;DHT22;50669;50.982;11.022;2023-12-20T03:17:01;19.80;78.60
28837;DHT22;50669;50.982;11.022;2023-12-20T03:19:26;19.80;78.50
28837;DHT22;50669;50.982;11.022;2023-12-20T03:21:54;19.80;78.60
28837;DHT22;50669;50.982;11.022;2023-12-20T03:24:20;19.80;78.70
28837;DHT22;50669;50.982;11.022;2023-12-20T03:26:45;19.80;78.60
28837;DHT22;50669;50.982;11.022;2023-12-20T03:29:11;19.80;78.60
28837;DHT22;50669;50.982;11.022;2023-12-20T03:31:39;19.80;78.70
28837;DHT22;50669;50.982;11.022;2023-12-20T03:34:07;19.80;78.60
28837;DHT22;50669;50.982;11.022;2023-12-20T03:36:33;19.80;78.70
28837;DHT22;50669;50.982;11.022;2023-12-20T03:39:01;19.80;78.50
28837;DHT22;50669;50.982;11.022;2023-12-20T03:41:26;19.80;78.60
28837;DHT22;50669;50.982;11.022;2023-12-20T03:43:52;19.80;78.60
28837;DHT22;50669;50.982;11.022;2023-12-20T03:46:20;19.80;78.60
28837;DHT22;50669;50.982;11.022;2023-12-20T03:48:48;19.80;78.60
28837;DHT22;50669;50.982;11.022;2023-12-20T03:51:18;19.80;78.60
28837;DHT22;50669;50.982;11.022;2023-12-20T03:53:44;19.80;78.60
28837;DHT22;50669;50.982;11.022;2023-12-20T03:56:10;19.80;78.60
28837;DHT22;50669;50.982;11.022;2023-12-20T03:58:35;19.80;78.60
28837;DHT22;50669;50.982;11.022;2023-12-20T04:01:01;19.80;78.60
28837;DHT22;50669;50.982;11.022;2023-12-20T04:03:30;19.80;78.60
28837;DHT22;50669;50.982;11.022;2023-12-20T04:05:57;19.80;78.60
28837;DHT22;50669;50.982;11.022;2023-12-20T04:08:23;19.80;78.70
28837;DHT22;50669;50.982;11.022;2023-12-20T04:10:49;19.80;78.70
28837;DHT22;50669;50.982;11.022;2023-12-20T04:13:17;19.80;78.70
28837;DHT22;50669;50.982;11.022;2023-12-20T04:15:43;19.80;78.80
28837;DHT22;50669;50.982;11.022;2023-12-20T04:18:08;19.80;78.80
28837;DHT22;50669;50.982;11.022;2023-12-20T04:20:36;19.80;78.90
28837;DHT22;50669;50.982;11.022;2023-12-20T04:23:02;19.80;79.00
28837;DHT22;50669;50.982;11.022;2023-12-20T04:25:29;19.80;79.00
28837;DHT22;50669;50.982;11.022;2023-12-20T04:27:55;19.80;79.80
28837;DHT22;50669;50.982;11.022;2023-12-20T04:30:23;19.80;79.10
28837;DHT22;50669;50.982;11.022;2023-12-20T04:32:51;19.80;79.10
28837;DHT22;50669;50.982;11.022;2023-12-20T04:35:17;19.80;79.20
28837;DHT22;50669;50.982;11.022;2023-12-20T04:37:42;19.80;79.20
28837;DHT22;50669;50.982;11.022;2023-12-20T04:40:08;19.80;79.20
28837;DHT22;50669;50.982;11.022;2023-12-20T04:42:36;19.80;79.20
28837;DHT22;50669;50.982;11.022;2023-12-20T04:45:02;19.80;79.20
28837;DHT22;50669;50.982;11.022;2023-12-20T04:47:28;19.80;79.10
28837;DHT22;50669;50.982;11.022;2023-12-20T04:49:58;19.80;79.10
28837;DHT22;50669;50.982;11.022;2023-12-20T04:52:25;19.80;79.10
28837;DHT22;50669;50.982;11.022;2023-12-20T04:54:51;19.80;79.00
28837;DHT22;50669;50.982;11.022;2023-12-20T04:57:16;19.80;79.00
28837;DHT22;50669;50.982;11.022;2023-12-20T04:59:42;19.80;79.00
28837;DHT22;50669;50.982;11.022;2023-12-20T05:02:08;19.80;79.00
28837;DHT22;50669;50.982;11.022;2023-12-20T05:04:33;19.80;79.00
28837;DHT22;50669;50.982;11.022;2023-12-20T05:07:01;19.80;79.00
28837;DHT22;50669;50.982;11.022;2023-12-20T05:09:30;19.80;79.20
28837;DHT22;50669;50.982;11.022;2023-12-20T05:11:55;19.80;79.10
28837;DHT22;50669;50.982;11.022;2023-12-20T05:14:24;19.80;79.10
28837;DHT22;50669;50.982;11.022;2023-12-20T05:16:50;19.80;79.10
28837;DHT22;50669;50.982;11.022;2023-12-20T05:19:15;19.80;79.00
28837;DHT22;50669;50.982;11.022;2023-12-20T05:21:46;19.80;79.10
28837;DHT22;50669;50.982;11.022;2023-12-20T05:24:12;19.80;79.10
28837;DHT22;50669;50.982;11.022;2023-12-20T05:26:37;19.80;79.20
28837;DHT22;50669;50.982;11.022;2023-12-20T05:29:03;19.80;79.20
28837;DHT22;50669;50.982;11.022;2023-12-20T05:31:31;19.80;79.20
28837;DHT22;50669;50.982;11.022;2023-12-20T05:33:59;19.80;79.20
28837;DHT22;50669;50.982;11.022;2023-12-20T05:36:30;19.80;79.30
28837;DHT22;50669;50.982;11.022;2023-12-20T05:38:55;19.80;79.40
28837;DHT22;50669;50.982;11.022;2023-12-20T05:41:26;19.80;79.50
28837;DHT22;50669;50.982;11.022;2023-12-20T05:43:52;19.80;79.20
28837;DHT22;50669;50.982;11.022;2023-12-20T05:46:17;19.80;78.70
28837;DHT22;50669;50.982;11.022;2023-12-20T05:48:48;19.70;78.30
28837;DHT22;50669;50.982;11.022;2023-12-20T05:51:14;19.70;77.80
28837;DHT22;50669;50.982;11.022;2023-12-20T05:53:40;19.70;77.60
28837;DHT22;50669;50.982;11.022;2023-12-20T05:56:05;19.70;77.50
28837;DHT22;50669;50.982;11.022;2023-12-20T05:58:32;19.70;77.30
28837;DHT22;50669;50.982;11.022;2023-12-20T06:00:58;19.60;77.10
28837;DHT22;50669;50.982;11.022;2023-12-20T06:03:23;19.70;77.10
28837;DHT22;50669;50.982;11.022;2023-12-20T06:05:53;19.70;77.00
28837;DHT22;50669;50.982;11.022;2023-12-20T06:08:22;19.70;76.90
28837;DHT22;50669;50.982;11.022;2023-12-20T06:10:49;19.60;76.50
28837;DHT22;50669;50.982;11.022;2023-12-20T06:13:15;19.30;70.10
28837;DHT22;50669;50.982;11.022;2023-12-20T06:15:43;18.60;71.60
28837;DHT22;50669;50.982;11.022;2023-12-20T06:18:11;18.20;74.10
28837;DHT22;50669;50.982;11.022;2023-12-20T06:20:39;18.00;74.60
28837;DHT22;50669;50.982;11.022;2023-12-20T06:23:04;17.80;74.10
28837;DHT22;50669;50.982;11.022;2023-12-20T06:25:30;17.70;74.60
28837;DHT22;50669;50.982;11.022;2023-12-20T06:27:56;17.70;74.70
28837;DHT22;50669;50.982;11.022;2023-12-20T06:30:21;17.50;74.30
28837;DHT22;50669;50.982;11.022;2023-12-20T06:32:47;17.60;76.00
28837;DHT22;50669;50.982;11.022;2023-12-20T06:35:13;17.90;77.10
28837;DHT22;50669;50.982;11.022;2023-12-20T06:37:39;18.20;77.20
28837;DHT22;50669;50.982;11.022;2023-12-20T06:40:09;18.50;76.90
28837;DHT22;50669;50.982;11.022;2023-12-20T06:42:35;18.70;76.50
28837;DHT22;50669;50.982;11.022;2023-12-20T06:45:03;18.90;76.10
28837;DHT22;50669;50.982;11.022;2023-12-20T06:47:29;19.10;75.90
28837;DHT22;50669;50.982;11.022;2023-12-20T06:49:54;19.20;75.60
28837;DHT22;50669;50.982;11.022;2023-12-20T06:52:20;19.30;75.30
28837;DHT22;50669;50.982;11.022;2023-12-20T06:54:50;19.40;75.10
28837;DHT22;50669;50.982;11.022;2023-12-20T06:57:16;19.50;74.90
28837;DHT22;50669;50.982;11.022;2023-12-20T06:59:42;19.50;74.80
28837;DHT22;50669;50.982;11.022;2023-12-20T07:02:11;19.60;74.60
28837;DHT22;50669;50.982;11.022;2023-12-20T07:04:43;19.60;74.50
28837;DHT22;50669;50.982;11.022;2023-12-20T07:07:13;19.70;74.40
28837;DHT22;50669;50.982;11.022;2023-12-20T07:09:41;19.70;74.30
28837;DHT22;50669;50.982;11.022;2023-12-20T07:12:10;19.70;74.20
28837;DHT22;50669;50.982;11.022;2023-12-20T07:14:36;19.80;74.10
28837;DHT22;50669;50.982;11.022;2023-12-20T07:17:02;19.80;74.00
28837;DHT22;50669;50.982;11.022;2023-12-20T07:19:28;19.80;73.90
28837;DHT22;50669;50.982;11.022;2023-12-20T07:21:57;19.80;73.90
28837;DHT22;50669;50.982;11.022;2023-12-20T07:24:22;19.80;73.80
28837;DHT22;50669;50.982;11.022;2023-12-20T07:26:48;19.90;73.70
28837;DHT22;50669;50.982;11.022;2023-12-20T07:29:14;19.90;73.60
28837;DHT22;50669;50.982;11.022;2023-12-20T07:31:39;19.90;73.60
28837;DHT22;50669;50.982;11.022;2023-12-20T07:34:05;19.90;73.50
28837;DHT22;50669;50.982;11.022;2023-12-20T07:36:31;19.90;73.50
28837;DHT22;50669;50.982;11.022;2023-12-20T07:38:56;19.90;73.40
28837;DHT22;50669;50.982;11.022;2023-12-20T07:41:22;19.90;73.20
28837;DHT22;50669;50.982;11.022;2023-12-20T07:43:49;19.90;73.30
28837;DHT22;50669;50.982;11.022;2023-12-20T07:46:18;19.90;73.20
28837;DHT22;50669;50.982;11.022;2023-12-20T07:48:48;20.00;73.10
28837;DHT22;50669;50.982;11.022;2023-12-20T07:51:13;20.00;73.10
28837;DHT22;50669;50.982;11.022;2023-12-20T07:53:41;20.00;73.10
28837;DHT22;50669;50.982;11.022;2023-12-20T07:56:19;20.00;73.10
28837;DHT22;50669;50.982;11.022;2023-12-20T07:58:48;20.00;73.10
28837;DHT22;50669;50.982;11.022;2023-12-20T08:01:16;20.00;73.00
28837;DHT22;50669;50.982;11.022;2023-12-20T08:03:44;20.00;73.00
28837;DHT22;50669;50.982;11.022;2023-12-20T08:06:09;20.00;72.90
28837;DHT22;50669;50.982;11.022;2023-12-20T08:08:35;20.00;72.90
28837;DHT22;50669;50.982;11.022;2023-12-20T08:11:01;20.00;72.90
28837;DHT22;50669;50.982;11.022;2023-12-20T08:13:27;20.00;72.80
28837;DHT22;50669;50.982;11.022;2023-12-20T08:15:53;20.00;72.80
28837;DHT22;50669;50.982;11.022;2023-12-20T08:18:22;20.00;72.70
28837;DHT22;50669;50.982;11.022;2023-12-20T08:20:48;20.00;72.80
28837;DHT22;50669;50.982;11.022;2023-12-20T08:23:15;20.00;72.70
28837;DHT22;50669;50.982;11.022;2023-12-20T08:25:43;20.00;72.60
28837;DHT22;50669;50.982;11.022;2023-12-20T08:28:08;20.00;72.60
28837;DHT22;50669;50.982;11.022;2023-12-20T08:30:34;20.00;72.60
28837;DHT22;50669;50.982;11.022;2023-12-20T08:33:00;20.00;72.50
28837;DHT22;50669;50.982;11.022;2023-12-20T08:35:26;20.00;72.50
28837;DHT22;50669;50.982;11.022;2023-12-20T08:37:51;20.00;72.50
28837;DHT22;50669;50.982;11.022;2023-12-20T08:40:17;20.00;72.40
28837;DHT22;50669;50.982;11.022;2023-12-20T08:42:43;20.00;72.40
28837;DHT22;50669;50.982;11.022;2023-12-20T08:45:09;20.00;72.40
28837;DHT22;50669;50.982;11.022;2023-12-20T08:47:35;20.00;72.40
28837;DHT22;50669;50.982;11.022;2023-12-20T08:50:02;20.00;72.30
28837;DHT22;50669;50.982;11.022;2023-12-20T08:52:28;20.00;72.30
28837;DHT22;50669;50.982;11.022;2023-12-20T08:54:54;20.00;72.30
28837;DHT22;50669;50.982;11.022;2023-12-20T08:57:20;20.00;72.30
28837;DHT22;50669;50.982;11.022;2023-12-20T08:59:49;20.00;72.30
28837;DHT22;50669;50.982;11.022;2023-12-20T09:02:15;20.00;72.20
28837;DHT22;50669;50.982;11.022;2023-12-20T09:04:41;20.00;72.40
28837;DHT22;50669;50.982;11.022;2023-12-20T09:07:07;20.00;72.20
28837;DHT22;50669;50.982;11.022;2023-12-20T09:09:33;20.00;72.10
28837;DHT22;50669;50.982;11.022;2023-12-20T09:11:59;20.00;72.10
28837;DHT22;50669;50.982;11.022;2023-12-20T09:14:24;20.00;72.10
28837;DHT22;50669;50.982;11.022;2023-12-20T09:16:50;20.00;72.00
28837;DHT22;50669;50.982;11.022;2023-12-20T09:19:17;20.00;72.00
28837;DHT22;50669;50.982;11.022;2023-12-20T09:21:45;20.00;72.00
28837;DHT22;50669;50.982;11.022;2023-12-20T09:24:10;20.00;72.00
28837;DHT22;50669;50.982;11.022;2023-12-20T09:26:39;20.00;71.90
28837;DHT22;50669;50.982;11.022;2023-12-20T09:29:05;20.00;71.90
28837;DHT22;50669;50.982;11.022;2023-12-20T09:31:38;20.00;71.90
28837;DHT22;50669;50.982;11.022;2023-12-20T09:34:04;20.00;71.80
28837;DHT22;50669;50.982;11.022;2023-12-20T09:36:33;20.00;71.80
28837;DHT22;50669;50.982;11.022;2023-12-20T09:39:01;20.00;71.90
28837;DHT22;50669;50.982;11.022;2023-12-20T09:41:29;20.00;71.80
28837;DHT22;50669;50.982;11.022;2023-12-20T09:43:59;20.00;71.70
28837;DHT22;50669;50.982;11.022;2023-12-20T09:46:29;20.00;71.70
28837;DHT22;50669;50.982;11.022;2023-12-20T09:48:59;20.00;71.80
28837;DHT22;50669;50.982;11.022;2023-12-20T09:51:29;20.00;71.70
28837;DHT22;50669;50.982;11.022;2023-12-20T09:53:54;20.00;71.70
28837;DHT22;50669;50.982;11.022;2023-12-20T09:56:25;20.00;71.70
28837;DHT22;50669;50.982;11.022;2023-12-20T09:58:50;20.00;71.60
28837;DHT22;50669;50.982;11.022;2023-12-20T10:01:17;20.00;71.60
28837;DHT22;50669;50.982;11.022;2023-12-20T10:03:43;20.00;71.60
28837;DHT22;50669;50.982;11.022;2023-12-20T10:06:09;20.00;71.60
28837;DHT22;50669;50.982;11.022;2023-12-20T10:08:35;20.00;71.60
28837;DHT22;50669;50.982;11.022;2023-12-20T10:11:01;19.90;71.50
28837;DHT22;50669;50.982;11.022;2023-12-20T10:13:30;19.90;71.50
28837;DHT22;50669;50.982;11.022;2023-12-20T10:15:59;19.90;71.40
28837;DHT22;50669;50.982;11.022;2023-12-20T10:18:26;20.00;71.50
28837;DHT22;50669;50.982;11.022;2023-12-20T10:20:54;19.90;71.40
28837;DHT22;50669;50.982;11.022;2023-12-20T10:23:19;20.00;71.50
28837;DHT22;50669;50.982;11.022;2023-12-20T10:25:56;19.90;71.20
28837;DHT22;50669;50.982;11.022;2023-12-20T10:28:22;19.90;71.30
28837;DHT22;50669;50.982;11.022;2023-12-20T10:30:50;19.90;71.30
28837;DHT22;50669;50.982;11.022;2023-12-20T10:33:28;19.90;71.30
28837;DHT22;50669;50.982;11.022;2023-12-20T10:35:57;19.90;71.20
28837;DHT22;50669;50.982;11.022;2023-12-20T10:38:23;19.90;71.20
28837;DHT22;50669;50.982;11.022;2023-12-20T10:40:56;19.90;71.20
28837;DHT22;50669;50.982;11.022;2023-12-20T10:43:24;19.90;71.20
28837;DHT22;50669;50.982;11.022;2023-12-20T10:45:52;19.90;71.20
28837;DHT22;50669;50.982;11.022;2023-12-20T10:48:18;20.00;71.20
28837;DHT22;50669;50.982;11.022;2023-12-20T10:50:44;19.90;71.10
28837;DHT22;50669;50.982;11.022;2023-12-20T10:53:10;19.90;71.10
28837;DHT22;50669;50.982;11.022;2023-12-20T10:55:41;20.00;71.10
28837;DHT22;50669;50.982;11.022;2023-12-20T10:58:10;20.00;71.10
28837;DHT22;50669;50.982;11.022;2023-12-20T11:00:40;20.00;71.10
28837;DHT22;50669;50.982;11.022;2023-12-20T11:03:09;20.00;71.10
28837;DHT22;50669;50.982;11.022;2023-12-20T11:05:49;20.00;71.10
28837;DHT22;50669;50.982;11.022;2023-12-20T11:14:20;20.00;71.10
28837;DHT22;50669;50.982;11.022;2023-12-20T11:16:48;19.90;70.90
28837;DHT22;50669;50.982;11.022;2023-12-20T11:19:13;20.00;71.00
28837;DHT22;50669;50.982;11.022;2023-12-20T11:21:40;20.00;71.00
28837;DHT22;50669;50.982;11.022;2023-12-20T11:24:06;20.00;71.00
28837;DHT22;50669;50.982;11.022;2023-12-20T11:26:32;19.90;70.90
28837;DHT22;50669;50.982;11.022;2023-12-20T11:29:41;19.90;70.80
28837;DHT22;50669;50.982;11.022;2023-12-20T11:34:47;19.90;70.90
28837;DHT22;50669;50.982;11.022;2023-12-20T11:37:13;19.90;70.80
28837;DHT22;50669;50.982;11.022;2023-12-20T11:39:43;19.90;70.80
28837;DHT22;50669;50.982;11.022;2023-12-20T11:42:10;19.90;70.80
28837;DHT22;50669;50.982;11.022;2023-12-20T11:44:36;19.90;70.80
28837;DHT22;50669;50.982;11.022;2023-12-20T11:47:03;19.90;70.70
28837;DHT22;50669;50.982;11.022;2023-12-20T11:49:29;19.90;70.70
28837;DHT22;50669;50.982;11.022;2023-12-20T11:51:56;19.90;70.70
28837;DHT22;50669;50.982;11.022;2023-12-20T11:54:22;19.90;70.70
28837;DHT22;50669;50.982;11.022;2023-12-20T11:56:48;19.90;70.60
28837;DHT22;50669;50.982;11.022;2023-12-20T11:59:14;19.90;70.60
28837;DHT22;50669;50.982;11.022;2023-12-20T12:01:40;19.90;70.60
28837;DHT22;50669;50.982;11.022;2023-12-20T12:04:12;19.90;70.60
28837;DHT22;50669;50.982;11.022;2023-12-20T12:06:40;19.90;70.70
28837;DHT22;50669;50.982;11.022;2023-12-20T12:09:06;19.90;70.60
28837;DHT22;50669;50.982;11.022;2023-12-20T12:11:34;19.90;70.60
28837;DHT22;50669;50.982;11.022;2023-12-20T12:14:02;19.90;70.60
28837;DHT22;50669;50.982;11.022;2023-12-20T12:16:30;19.90;70.60
28837;DHT22;50669;50.982;11.022;2023-12-20T12:18:58;19.80;70.50
28837;DHT22;50669;50.982;11.022;2023-12-20T12:21:26;19.90;70.50
28837;DHT22;50669;50.982;11.022;2023-12-20T12:24:06;19.90;70.50
28837;DHT22;50669;50.982;11.022;2023-12-20T12:26:32;19.90;70.50
28837;DHT22;50669;50.982;11.022;2023-12-20T12:28:57;19.90;70.50
28837;DHT22;50669;50.982;11.022;2023-12-20T12:31:25;19.80;70.50
28837;DHT22;50669;50.982;11.022;2023-12-20T12:33:53;19.80;70.50
28837;DHT22;50669;50.982;11.022;2023-12-20T12:36:24;19.90;70.50
28837;DHT22;50669;50.982;11.022;2023-12-20T12:38:54;19.80;70.40
28837;DHT22;50669;50.982;11.022;2023-12-20T12:41:21;19.80;70.40
28837;DHT22;50669;50.982;11.022;2023-12-20T12:43:49;19.80;70.30
28837;DHT22;50669;50.982;11.022;2023-12-20T12:46:14;19.80;70.40
28837;DHT22;50669;50.982;11.022;2023-12-20T12:48:40;19.80;70.40
28837;DHT22;50669;50.982;11.022;2023-12-20T12:51:06;19.80;70.30
28837;DHT22;50669;50.982;11.022;2023-12-20T12:53:35;19.80;70.30
28837;DHT22;50669;50.982;11.022;2023-12-20T12:56:01;19.80;70.40
28837;DHT22;50669;50.982;11.022;2023-12-20T12:58:29;19.80;70.30
28837;DHT22;50669;50.982;11.022;2023-12-20T13:00:54;19.80;70.30
28837;DHT22;50669;50.982;11.022;2023-12-20T13:03:22;19.80;70.40
28837;DHT22;50669;50.982;11.022;2023-12-20T13:05:50;19.80;70.20
28837;DHT22;50669;50.982;11.022;2023-12-20T13:08:18;19.80;70.30
28837;DHT22;50669;50.982;11.022;2023-12-20T13:10:44;19.80;70.30
28837;DHT22;50669;50.982;11.022;2023-12-20T13:13:12;19.80;70.30
28837;DHT22;50669;50.982;11.022;2023-12-20T13:15:37;19.80;70.20
28837;DHT22;50669;50.982;11.022;2023-12-20T13:18:03;19.80;70.20
28837;DHT22;50669;50.982;11.022;2023-12-20T13:20:30;19.80;70.10
28837;DHT22;50669;50.982;11.022;2023-12-20T13:22:55;19.80;70.20
28837;DHT22;50669;50.982;11.022;2023-12-20T13:25:21;19.80;70.20
28837;DHT22;50669;50.982;11.022;2023-12-20T13:27:49;19.80;70.20
28837;DHT22;50669;50.982;11.022;2023-12-20T13:30:19;19.80;70.20
28837;DHT22;50669;50.982;11.022;2023-12-20T13:32:49;19.70;70.10
28837;DHT22;50669;50.982;11.022;2023-12-20T13:35:15;19.80;70.20
28837;DHT22;50669;50.982;11.022;2023-12-20T13:37:41;19.70;70.10
28837;DHT22;50669;50.982;11.022;2023-12-20T13:40:15;19.70;70.10
28837;DHT22;50669;50.982;11.022;2023-12-20T13:42:43;19.70;70.10
28837;DHT22;50669;50.982;11.022;2023-12-20T13:45:11;19.80;70.10
28837;DHT22;50669;50.982;11.022;2023-12-20T13:47:36;19.70;70.10
28837;DHT22;50669;50.982;11.022;2023-12-20T13:50:05;19.70;70.10
28837;DHT22;50669;50.982;11.022;2023-12-20T13:52:30;19.70;70.10
28837;DHT22;50669;50.982;11.022;2023-12-20T13:54:58;19.70;70.00
28837;DHT22;50669;50.982;11.022;2023-12-20T13:57:26;19.70;70.00
28837;DHT22;50669;50.982;11.022;2023-12-20T13:59:52;19.70;70.00
28837;DHT22;50669;50.982;11.022;2023-12-20T14:02:17;19.70;70.00
28837;DHT22;50669;50.982;11.022;2023-12-20T14:04:43;19.70;70.10
28837;DHT22;50669;50.982;11.022;2023-12-20T14:07:09;19.70;70.00
28837;DHT22;50669;50.982;11.022;2023-12-20T14:09:35;19.70;70.10
28837;DHT22;50669;50.982;11.022;2023-12-20T14:12:01;19.70;70.00
28837;DHT22;50669;50.982;11.022;2023-12-20T14:14:29;19.70;70.10
28837;DHT22;50669;50.982;11.022;2023-12-20T14:16:57;19.70;70.00
28837;DHT22;50669;50.982;11.022;2023-12-20T14:19:23;19.70;70.00
28837;DHT22;50669;50.982;11.022;2023-12-20T14:21:49;19.70;70.10
28837;DHT22;50669;50.982;11.022;2023-12-20T14:24:14;19.60;70.00
28837;DHT22;50669;50.982;11.022;2023-12-20T14:26:41;19.60;70.00
28837;DHT22;50669;50.982;11.022;2023-12-20T14:29:07;19.60;69.90
28837;DHT22;50669;50.982;11.022;2023-12-20T14:31:33;19.60;70.00
28837;DHT22;50669;50.982;11.022;2023-12-20T14:34:02;19.60;70.00
28837;DHT22;50669;50.982;11.022;2023-12-20T14:36:29;19.60;69.90
28837;DHT22;50669;50.982;11.022;2023-12-20T14:38:58;19.60;70.00
28837;DHT22;50669;50.982;11.022;2023-12-20T14:41:24;19.60;69.90
28837;DHT22;50669;50.982;11.022;2023-12-20T14:43:51;19.60;70.00
28837;DHT22;50669;50.982;11.022;2023-12-20T14:46:19;19.60;70.00
28837;DHT22;50669;50.982;11.022;2023-12-20T14:48:45;19.60;69.90
28837;DHT22;50669;50.982;11.022;2023-12-20T14:51:11;19.60;69.90
28837;DHT22;50669;50.982;11.022;2023-12-20T14:53:38;19.60;70.00
28837;DHT22;50669;50.982;11.022;2023-12-20T14:56:05;19.60;70.00
28837;DHT22;50669;50.982;11.022;2023-12-20T14:58:31;19.60;69.90
28837;DHT22;50669;50.982;11.022;2023-12-20T15:00:59;19.50;69.90
28837;DHT22;50669;50.982;11.022;2023-12-20T15:03:27;19.60;69.90
28837;DHT22;50669;50.982;11.022;2023-12-20T15:05:54;19.60;69.90
28837;DHT22;50669;50.982;11.022;2023-12-20T15:08:19;19.50;69.90
28837;DHT22;50669;50.982;11.022;2023-12-20T15:10:49;19.50;69.80
28837;DHT22;50669;50.982;11.022;2023-12-20T15:13:15;19.50;69.90
28837;DHT22;50669;50.982;11.022;2023-12-20T15:15:43;19.50;69.90
28837;DHT22;50669;50.982;11.022;2023-12-20T15:18:12;19.50;69.80
28837;DHT22;50669;50.982;11.022;2023-12-20T15:20:40;19.50;69.80
28837;DHT22;50669;50.982;11.022;2023-12-20T15:23:07;19.50;69.80